createdAt,value
2018-05-10T00:02:07.288Z,6.60
2018-05-10T00:04:34.840Z,6.60
2018-05-10T00:07:02.432Z,6.50
2018-05-10T00:09:29.980Z,6.50
2018-05-10T00:11:57.531Z,6.60
2018-05-10T00:14:25.080Z,6.60
2018-05-10T00:16:52.629Z,6.60
2018-05-10T00:19:20.199Z,6.60
2018-05-10T00:21:47.748Z,6.50
2018-05-10T00:24:15.359Z,6.60
2018-05-10T00:26:42.972Z,6.60
2018-05-10T00:29:10.520Z,6.50
2018-05-10T00:31:38.101Z,6.40
2018-05-10T00:34:05.648Z,6.40
2018-05-10T00:36:33.196Z,6.40
2018-05-10T00:39:01.534Z,6.50
2018-05-10T00:41:29.094Z,6.50
2018-05-10T00:43:56.680Z,6.50
2018-05-10T00:46:24.224Z,6.40
2018-05-10T00:48:52.542Z,6.20
2018-05-10T00:51:20.944Z,6.10
2018-05-10T00:53:48.496Z,6.30
2018-05-10T00:56:16.073Z,6.20
2018-05-10T00:58:43.617Z,6.10
2018-05-10T01:01:12.016Z,6.10
2018-05-10T01:03:39.570Z,6.10
2018-05-10T01:06:07.119Z,5.90
2018-05-10T01:08:36.172Z,5.90
2018-05-10T01:11:03.741Z,5.90
2018-05-10T01:13:31.287Z,5.90
2018-05-10T01:15:58.836Z,5.80
2018-05-10T01:18:26.380Z,5.70
2018-05-10T01:20:56.339Z,5.80
2018-05-10T01:23:23.908Z,5.80
2018-05-10T01:25:53.049Z,5.70
2018-05-10T01:28:23.681Z,5.60
2018-05-10T01:30:51.230Z,5.60
2018-05-10T01:33:19.289Z,5.60
2018-05-10T01:35:58.784Z,5.60
2018-05-10T01:38:26.341Z,5.50
2018-05-10T01:40:53.889Z,5.40
2018-05-10T01:43:21.452Z,5.30
2018-05-10T01:45:49.000Z,5.30
2018-05-10T01:48:16.572Z,5.30
2018-05-10T01:50:44.228Z,5.30
2018-05-10T01:53:11.773Z,5.30
2018-05-10T01:55:39.317Z,5.30
2018-05-10T01:58:06.868Z,5.20
2018-05-10T02:00:35.203Z,5.40
2018-05-10T02:03:02.752Z,5.30
2018-05-10T02:05:30.293Z,5.40
2018-05-10T02:07:57.853Z,5.60
2018-05-10T02:10:25.403Z,5.70
2018-05-10T02:12:52.972Z,5.80
2018-05-10T02:15:20.520Z,5.60
2018-05-10T02:17:48.070Z,5.40
2018-05-10T02:20:15.616Z,5.40
2018-05-10T02:22:43.164Z,5.30
2018-05-10T02:25:10.744Z,5.30
2018-05-10T02:27:38.296Z,5.10
2018-05-10T02:30:05.841Z,5.20
2018-05-10T02:32:33.395Z,5.20
2018-05-10T02:35:00.957Z,5.20
2018-05-10T02:37:28.532Z,5.30
2018-05-10T02:39:56.076Z,5.10
2018-05-10T02:42:23.633Z,5.20
2018-05-10T02:44:51.239Z,5.40
2018-05-10T02:47:18.764Z,5.60
2018-05-10T02:49:46.345Z,5.70
2018-05-10T02:52:13.894Z,5.80
2018-05-10T02:54:41.454Z,5.80
2018-05-10T02:57:09.010Z,5.90
2018-05-10T02:59:36.571Z,5.90
2018-05-10T03:02:04.136Z,5.90
2018-05-10T03:04:31.684Z,6.00
2018-05-10T03:06:59.237Z,6.10
2018-05-10T03:09:26.785Z,6.20
2018-05-10T03:11:54.341Z,6.20
2018-05-10T03:14:21.916Z,6.20
2018-05-10T03:16:49.464Z,6.20
2018-05-10T03:19:17.018Z,6.20
2018-05-10T03:21:44.564Z,5.80
2018-05-10T03:24:12.116Z,5.60
2018-05-10T03:26:39.680Z,5.60
2018-05-10T03:29:07.233Z,5.60
2018-05-10T03:31:34.780Z,5.80
2018-05-10T03:34:03.096Z,5.80
2018-05-10T03:36:30.655Z,5.90
2018-05-10T03:38:58.228Z,6.10
2018-05-10T03:41:25.784Z,6.40
2018-05-10T03:43:53.332Z,6.60
2018-05-10T03:46:20.972Z,6.50
2018-05-10T03:48:48.463Z,6.40
2018-05-10T03:51:16.049Z,6.50
2018-05-10T03:53:43.600Z,6.90
2018-05-10T03:56:11.148Z,7.10
2018-05-10T03:58:38.701Z,7.30
2018-05-10T04:01:06.255Z,7.60
2018-05-10T04:03:57.465Z,7.90
2018-05-10T04:06:36.824Z,8.10
2018-05-10T04:09:16.179Z,8.10
2018-05-10T04:11:43.728Z,8.40
2018-05-10T04:14:11.272Z,8.50
2018-05-10T04:16:38.816Z,8.60
2018-05-10T04:19:06.358Z,8.70
2018-05-10T04:21:33.928Z,8.80
2018-05-10T04:24:01.479Z,8.80
2018-05-10T04:26:29.120Z,9.00
2018-05-10T04:28:56.660Z,9.10
2018-05-10T04:31:24.220Z,9.30
2018-05-10T04:33:51.799Z,9.30
2018-05-10T04:36:19.349Z,9.40
2018-05-10T04:38:46.896Z,9.60
2018-05-10T04:41:14.444Z,9.70
2018-05-10T04:43:41.993Z,9.80
2018-05-10T04:46:09.570Z,9.90
2018-05-10T04:48:37.124Z,10.10
2018-05-10T04:51:04.671Z,10.20
2018-05-10T04:53:32.219Z,10.40
2018-05-10T04:55:59.772Z,10.50
2018-05-10T04:58:27.343Z,10.60
2018-05-10T05:00:55.662Z,10.80
2018-05-10T05:03:23.274Z,10.80
2018-05-10T05:05:50.799Z,10.90
2018-05-10T05:08:18.359Z,11.10
2018-05-10T05:10:46.714Z,11.20
2018-05-10T05:13:14.260Z,11.20
2018-05-10T05:15:41.867Z,11.40
2018-05-10T05:18:10.902Z,11.40
2018-05-10T05:20:38.464Z,11.40
2018-05-10T05:23:06.036Z,11.50
2018-05-10T05:25:33.596Z,11.50
2018-05-10T05:28:01.156Z,11.60
2018-05-10T05:30:28.713Z,11.70
2018-05-10T05:32:56.269Z,11.80
2018-05-10T05:35:23.846Z,11.80
2018-05-10T05:37:51.396Z,11.80
2018-05-10T05:40:18.949Z,11.90
2018-05-10T05:42:46.507Z,12.10
2018-05-10T05:45:14.056Z,12.20
2018-05-10T05:47:41.626Z,12.20
2018-05-10T05:50:09.176Z,12.20
2018-05-10T05:52:36.737Z,12.20
2018-05-10T05:55:04.342Z,12.30
2018-05-10T05:57:31.895Z,12.30
2018-05-10T06:00:00.317Z,12.60
2018-05-10T06:02:27.868Z,12.60
2018-05-10T06:04:55.425Z,12.90
2018-05-10T06:07:22.981Z,13.10
2018-05-10T06:09:50.533Z,13.60
2018-05-10T06:12:18.081Z,14.00
2018-05-10T06:14:45.668Z,14.20
2018-05-10T06:17:13.217Z,14.60
2018-05-10T06:19:40.772Z,15.10
2018-05-10T06:22:08.324Z,15.40
2018-05-10T06:24:35.894Z,15.70
2018-05-10T06:27:03.475Z,15.90
2018-05-10T06:29:31.024Z,16.20
2018-05-10T06:31:58.579Z,16.50
2018-05-10T06:34:26.896Z,17.00
2018-05-10T06:36:54.449Z,17.00
2018-05-10T06:39:22.032Z,17.20
2018-05-10T06:41:49.598Z,17.80
2018-05-10T06:44:17.150Z,17.80
2018-05-10T06:46:46.197Z,18.00
2018-05-10T06:49:14.541Z,18.40
2018-05-10T06:51:42.299Z,18.40
2018-05-10T06:54:09.866Z,18.40
2018-05-10T06:56:37.440Z,18.80
2018-05-10T06:59:04.992Z,18.10
2018-05-10T07:01:32.938Z,18.30
2018-05-10T07:04:00.540Z,18.60
2018-05-10T07:06:28.095Z,18.80
2018-05-10T07:08:55.645Z,19.10
2018-05-10T07:11:23.200Z,18.90
2018-05-10T07:13:50.748Z,18.60
2018-05-10T07:16:18.410Z,19.00
2018-05-10T07:18:45.968Z,19.10
2018-05-10T07:21:13.527Z,18.80
2018-05-10T07:23:41.085Z,19.10
2018-05-10T07:26:08.632Z,19.40
2018-05-10T07:28:36.204Z,19.40
2018-05-10T07:31:03.762Z,19.60
2018-05-10T07:33:31.312Z,19.40
2018-05-10T07:35:58.861Z,19.30
2018-05-10T07:38:26.414Z,20.00
2018-05-10T07:40:53.993Z,20.10
2018-05-10T07:43:21.545Z,19.80
2018-05-10T07:45:49.092Z,19.30
2018-05-10T07:48:16.649Z,19.10
2018-05-10T07:50:44.969Z,19.30
2018-05-10T07:53:12.601Z,19.30
2018-05-10T07:55:40.121Z,19.60
2018-05-10T07:58:07.676Z,19.50
2018-05-10T08:00:35.228Z,19.80
2018-05-10T08:03:03.557Z,19.90
2018-05-10T08:05:31.144Z,19.90
2018-05-10T08:07:58.709Z,20.40
2018-05-10T08:10:27.129Z,20.30
2018-05-10T08:12:54.692Z,20.30
2018-05-10T08:15:22.244Z,20.70
2018-05-10T08:17:49.844Z,20.40
2018-05-10T08:20:17.934Z,19.50
2018-05-10T08:22:46.249Z,19.50
2018-05-10T08:25:13.801Z,19.50
2018-05-10T08:27:48.144Z,19.90
2018-05-10T08:30:15.803Z,19.70
2018-05-10T08:32:43.311Z,20.40
2018-05-10T08:35:10.860Z,20.70
2018-05-10T08:37:39.180Z,20.60
2018-05-10T08:40:06.728Z,20.60
2018-05-10T08:42:34.320Z,20.00
2018-05-10T08:45:01.892Z,19.90
2018-05-10T08:47:30.224Z,19.60
2018-05-10T08:49:57.784Z,19.60
2018-05-10T08:52:25.410Z,19.60
2018-05-10T08:54:52.941Z,19.60
2018-05-10T08:57:20.496Z,19.90
2018-05-10T08:59:48.048Z,19.90
2018-05-10T09:02:15.610Z,19.40
2018-05-10T09:04:43.164Z,19.40
2018-05-10T09:07:10.744Z,19.50
2018-05-10T09:09:38.308Z,19.70
2018-05-10T09:12:06.630Z,20.50
2018-05-10T09:14:34.183Z,20.40
2018-05-10T09:17:01.738Z,20.70
2018-05-10T09:19:29.312Z,20.60
2018-05-10T09:21:56.881Z,21.40
2018-05-10T09:24:24.444Z,21.40
2018-05-10T09:26:53.505Z,20.70
2018-05-10T09:29:21.052Z,20.70
2018-05-10T09:31:48.632Z,20.60
2018-05-10T09:34:16.185Z,20.60
2018-05-10T09:36:43.737Z,21.10
2018-05-10T09:39:11.317Z,20.60
2018-05-10T09:41:38.868Z,20.10
2018-05-10T09:44:06.514Z,20.70
2018-05-10T09:46:34.020Z,20.80
2018-05-10T09:49:01.573Z,20.20
2018-05-10T09:51:29.897Z,20.30
2018-05-10T09:53:57.452Z,20.30
2018-05-10T09:56:25.025Z,20.80
2018-05-10T09:58:52.634Z,20.70
2018-05-10T10:01:21.002Z,20.60
2018-05-10T10:03:49.325Z,20.20
2018-05-10T10:06:16.976Z,20.10
2018-05-10T10:08:45.272Z,20.30
2018-05-10T10:11:12.826Z,19.90
2018-05-10T10:13:40.497Z,20.90
2018-05-10T10:16:08.052Z,20.90
2018-05-10T10:18:35.600Z,20.60
2018-05-10T10:21:04.204Z,20.70
2018-05-10T10:23:33.265Z,19.70
2018-05-10T10:26:00.825Z,19.70
2018-05-10T10:28:28.380Z,20.40
2018-05-10T10:30:55.943Z,20.20
2018-05-10T10:33:25.039Z,20.50
2018-05-10T10:35:53.868Z,21.10
2018-05-10T10:38:23.361Z,20.10
2018-05-10T10:40:52.015Z,20.20
2018-05-10T10:43:20.521Z,19.90
2018-05-10T10:45:49.202Z,19.20
2018-05-10T10:48:18.008Z,19.60
2018-05-10T10:50:46.750Z,19.10
2018-05-10T10:53:16.174Z,19.10
2018-05-10T10:55:45.349Z,19.00
2018-05-10T10:58:14.210Z,18.90
2018-05-10T11:00:43.691Z,19.30
2018-05-10T11:03:13.225Z,19.30
2018-05-10T11:05:41.882Z,19.60
2018-05-10T11:08:11.388Z,19.10
2018-05-10T11:10:41.008Z,19.10
2018-05-10T11:13:11.360Z,18.30
2018-05-10T11:15:40.047Z,18.30
2018-05-10T11:18:08.886Z,18.00
2018-05-10T11:20:39.799Z,18.40
2018-05-10T11:23:08.745Z,18.30
2018-05-10T11:25:37.708Z,18.00
2018-05-10T11:28:07.078Z,17.90
2018-05-10T11:30:35.773Z,17.90
2018-05-10T11:33:03.420Z,17.90
2018-05-10T11:35:30.998Z,17.90
2018-05-10T11:37:58.548Z,17.60
2018-05-10T11:40:26.124Z,17.80
2018-05-10T11:42:53.700Z,18.00
2018-05-10T11:45:21.272Z,17.60
2018-05-10T11:47:48.824Z,17.30
2018-05-10T11:50:16.416Z,17.50
2018-05-10T11:52:43.965Z,17.70
2018-05-10T11:55:11.519Z,18.00
2018-05-10T11:57:39.074Z,17.70
2018-05-10T12:00:06.640Z,17.70
2018-05-10T12:02:34.305Z,17.50
2018-05-10T12:05:01.768Z,17.60
2018-05-10T12:07:29.332Z,17.90
2018-05-10T12:09:56.888Z,17.30
2018-05-10T12:12:24.442Z,17.80
2018-05-10T12:14:51.993Z,17.80
2018-05-10T12:17:19.568Z,17.90
2018-05-10T12:19:47.174Z,17.70
2018-05-10T12:22:14.732Z,17.40
2018-05-10T12:24:42.285Z,17.60
2018-05-10T12:27:09.840Z,17.60
2018-05-10T12:29:37.428Z,17.70
2018-05-10T12:32:04.986Z,17.70
2018-05-10T12:34:32.541Z,17.80
2018-05-10T12:37:00.098Z,18.00
2018-05-10T12:39:27.658Z,18.30
2018-05-10T12:41:55.238Z,18.40
2018-05-10T12:44:22.788Z,18.50
2018-05-10T12:46:50.341Z,18.20
2018-05-10T12:49:17.896Z,18.50
2018-05-10T12:51:45.453Z,18.50
2018-05-10T12:54:13.036Z,18.40
2018-05-10T12:56:40.592Z,18.10
2018-05-10T12:59:08.139Z,18.20
2018-05-10T13:01:35.688Z,18.50
2018-05-10T13:04:03.244Z,18.50
2018-05-10T13:06:30.830Z,18.60
2018-05-10T13:08:58.384Z,18.60
2018-05-10T13:11:25.944Z,18.40
2018-05-10T13:13:53.521Z,18.40
2018-05-10T13:16:21.073Z,18.30
2018-05-10T13:18:48.653Z,18.30
2018-05-10T13:21:16.201Z,18.30
2018-05-10T13:23:43.783Z,18.40
2018-05-10T13:26:11.340Z,18.10
2018-05-10T13:28:38.901Z,18.00
2018-05-10T13:31:06.471Z,18.20
2018-05-10T13:33:34.024Z,18.10
2018-05-10T13:36:01.576Z,18.00
2018-05-10T13:38:29.187Z,18.10
2018-05-10T13:40:56.709Z,18.10
2018-05-10T13:43:24.284Z,17.80
2018-05-10T13:45:51.844Z,17.80
2018-05-10T13:48:20.169Z,17.90
2018-05-10T13:50:47.729Z,17.90
2018-05-10T13:53:15.292Z,17.60
2018-05-10T13:55:42.881Z,17.40
2018-05-10T13:58:10.441Z,17.20
2018-05-10T14:00:37.992Z,17.50
2018-05-10T14:03:05.549Z,17.50
2018-05-10T14:05:33.106Z,17.30
2018-05-10T14:08:00.688Z,17.10
2018-05-10T14:10:28.240Z,17.40
2018-05-10T14:12:56.561Z,17.10
2018-05-10T14:15:24.881Z,17.20
2018-05-10T14:17:52.429Z,17.20
2018-05-10T14:20:20.005Z,17.30
2018-05-10T14:22:47.560Z,17.10
2018-05-10T14:25:15.188Z,17.00
2018-05-10T14:27:42.748Z,17.20
2018-05-10T14:30:10.301Z,17.30
2018-05-10T14:32:37.929Z,16.90
2018-05-10T14:35:05.460Z,17.20
2018-05-10T14:37:33.017Z,16.90
2018-05-10T14:40:00.574Z,16.90
2018-05-10T14:42:28.214Z,16.90
2018-05-10T14:44:55.801Z,17.10
2018-05-10T14:47:23.380Z,17.20
2018-05-10T14:49:50.962Z,17.10
2018-05-10T14:52:18.516Z,16.90
2018-05-10T14:54:46.836Z,16.90
2018-05-10T14:57:14.416Z,16.90
2018-05-10T14:59:42.048Z,16.70
2018-05-10T15:02:09.547Z,16.70
2018-05-10T15:04:38.021Z,16.70
2018-05-10T15:07:05.639Z,16.70
2018-05-10T15:09:33.215Z,16.60
2018-05-10T15:12:00.772Z,16.70
2018-05-10T15:14:28.324Z,16.80
2018-05-10T15:16:55.876Z,16.80
2018-05-10T15:19:23.430Z,16.80
2018-05-10T15:21:51.013Z,16.90
2018-05-10T15:24:18.576Z,17.00
2018-05-10T15:26:46.135Z,16.60
2018-05-10T15:29:13.690Z,16.60
2018-05-10T15:31:41.240Z,16.70
2018-05-10T15:34:08.841Z,16.70
2018-05-10T15:36:37.161Z,16.70
2018-05-10T15:39:04.716Z,16.60
2018-05-10T15:41:32.271Z,16.60
2018-05-10T15:44:00.019Z,16.60
2018-05-10T15:46:27.611Z,16.70
2018-05-10T15:48:55.165Z,16.90
2018-05-10T15:51:22.724Z,16.70
2018-05-10T15:53:50.323Z,16.90
2018-05-10T15:56:17.879Z,16.90
2018-05-10T15:58:46.220Z,16.90
2018-05-10T16:01:13.773Z,16.80
2018-05-10T16:03:41.324Z,16.90
2018-05-10T16:06:08.873Z,16.80
2018-05-10T16:08:36.432Z,16.70
2018-05-10T16:11:04.008Z,16.60
2018-05-10T16:13:31.555Z,16.70
2018-05-10T16:15:59.112Z,16.70
2018-05-10T16:18:26.680Z,16.60
2018-05-10T16:20:54.252Z,16.50
2018-05-10T16:23:21.820Z,16.40
2018-05-10T16:25:49.411Z,16.40
2018-05-10T16:28:16.961Z,16.30
2018-05-10T16:30:45.276Z,16.40
2018-05-10T16:33:12.827Z,16.40
2018-05-10T16:35:40.399Z,16.40
2018-05-10T16:38:07.953Z,16.40
2018-05-10T16:40:35.501Z,16.40
2018-05-10T16:43:03.059Z,16.40
2018-05-10T16:45:30.608Z,16.30
2018-05-10T16:47:58.186Z,16.30
2018-05-10T16:50:25.736Z,16.30
2018-05-10T16:52:53.293Z,16.30
2018-05-10T16:55:20.861Z,16.10
2018-05-10T16:57:48.431Z,16.10
2018-05-10T17:00:16.012Z,16.00
2018-05-10T17:02:43.565Z,16.00
2018-05-10T17:05:11.116Z,16.00
2018-05-10T17:07:38.672Z,16.00
2018-05-10T17:10:07.017Z,15.90
2018-05-10T17:12:34.608Z,15.90
2018-05-10T17:15:02.166Z,15.70
2018-05-10T17:17:29.728Z,15.70
2018-05-10T17:19:57.284Z,15.70
2018-05-10T17:22:24.845Z,15.60
2018-05-10T17:24:52.426Z,15.50
2018-05-10T17:27:20.748Z,15.60
2018-05-10T17:29:48.308Z,15.50
2018-05-10T17:32:15.856Z,15.40
2018-05-10T17:34:43.413Z,15.30
2018-05-10T17:37:10.989Z,15.30
2018-05-10T17:39:38.549Z,15.30
2018-05-10T17:42:06.104Z,15.20
2018-05-10T17:44:33.767Z,15.20
2018-05-10T17:47:01.321Z,15.10
2018-05-10T17:49:28.904Z,15.00
2018-05-10T17:51:56.460Z,15.00
2018-05-10T17:54:24.009Z,14.90
2018-05-10T17:56:51.564Z,14.90
2018-05-10T17:59:19.117Z,14.90
2018-05-10T18:01:46.700Z,14.90
2018-05-10T18:04:14.255Z,14.80
2018-05-10T18:06:41.808Z,14.90
2018-05-10T18:09:09.359Z,14.80
2018-05-10T18:11:36.913Z,14.70
2018-05-10T18:14:04.488Z,14.70
2018-05-10T18:16:32.054Z,14.50
2018-05-10T18:19:00.377Z,14.40
2018-05-10T18:21:28.124Z,14.40
2018-05-10T18:23:55.680Z,14.40
2018-05-10T18:26:23.255Z,14.40
2018-05-10T18:28:51.001Z,14.30
2018-05-10T18:31:18.560Z,14.10
2018-05-10T18:33:46.141Z,14.10
2018-05-10T18:36:13.694Z,14.00
2018-05-10T18:38:41.246Z,13.90
2018-05-10T18:41:08.801Z,13.90
2018-05-10T18:43:36.354Z,13.80
2018-05-10T18:46:03.904Z,13.70
2018-05-10T18:48:31.468Z,13.60
2018-05-10T18:50:59.141Z,13.60
2018-05-10T18:53:26.704Z,13.40
2018-05-10T18:55:54.260Z,13.20
2018-05-10T18:58:21.818Z,13.20
2018-05-10T19:00:49.375Z,13.10
2018-05-10T19:03:16.932Z,13.10
2018-05-10T19:05:44.727Z,13.10
2018-05-10T19:08:12.312Z,12.90
2018-05-10T19:10:41.014Z,12.80
2018-05-10T19:13:09.584Z,12.80
2018-05-10T19:15:37.145Z,12.80
2018-05-10T19:18:05.468Z,12.70
2018-05-10T19:20:33.036Z,12.60
2018-05-10T19:23:00.588Z,12.50
2018-05-10T19:25:28.144Z,12.40
2018-05-10T19:27:55.696Z,12.40
2018-05-10T19:30:23.252Z,12.40
2018-05-10T19:32:50.829Z,12.40
2018-05-10T19:35:18.383Z,12.20
2018-05-10T19:37:45.932Z,12.20
2018-05-10T19:40:13.492Z,12.20
2018-05-10T19:42:41.048Z,12.20
2018-05-10T19:45:08.708Z,12.10
2018-05-10T19:47:36.204Z,12.10
2018-05-10T19:50:04.535Z,12.00
2018-05-10T19:52:32.085Z,12.00
2018-05-10T19:54:59.645Z,12.00
2018-05-10T19:57:27.233Z,12.00
2018-05-10T19:59:54.804Z,11.90
2018-05-10T20:02:22.355Z,11.80
2018-05-10T20:04:49.909Z,11.80
2018-05-10T20:07:17.466Z,11.90
2018-05-10T20:09:45.043Z,11.90
2018-05-10T20:12:12.604Z,11.80
2018-05-10T20:14:40.921Z,11.70
2018-05-10T20:17:08.479Z,11.70
2018-05-10T20:19:36.038Z,11.60
2018-05-10T20:22:03.678Z,11.80
2018-05-10T20:24:31.257Z,11.70
2018-05-10T20:26:58.816Z,11.70
2018-05-10T20:29:26.376Z,11.70
2018-05-10T20:31:53.930Z,11.80
2018-05-10T20:34:21.536Z,11.70
2018-05-10T20:36:49.093Z,11.70
2018-05-10T20:39:17.249Z,11.70
2018-05-10T20:41:44.808Z,11.70
2018-05-10T20:44:12.368Z,11.60
2018-05-10T20:46:39.948Z,11.50
2018-05-10T20:49:07.503Z,11.50
2018-05-10T20:51:35.828Z,11.40
2018-05-10T20:54:03.384Z,11.40
2018-05-10T20:56:30.935Z,11.40
2018-05-10T20:58:58.517Z,11.40
2018-05-10T21:01:26.088Z,11.50
2018-05-10T21:03:53.636Z,11.50
2018-05-10T21:06:21.192Z,11.40
2018-05-10T21:08:48.745Z,11.40
2018-05-10T21:11:16.313Z,11.50
2018-05-10T21:13:43.868Z,11.40
2018-05-10T21:16:11.425Z,11.40
2018-05-10T21:18:38.984Z,11.40
2018-05-10T21:21:06.531Z,11.40
2018-05-10T21:23:34.111Z,11.40
2018-05-10T21:26:01.678Z,11.30
2018-05-10T21:28:29.232Z,11.30
2018-05-10T21:30:56.788Z,11.30
2018-05-10T21:33:24.348Z,11.30
2018-05-10T21:35:51.932Z,11.30
2018-05-10T21:38:20.268Z,11.40
2018-05-10T21:40:47.828Z,11.30
2018-05-10T21:43:15.394Z,11.30
2018-05-10T21:45:42.964Z,11.30
2018-05-10T21:48:10.549Z,11.20
2018-05-10T21:50:38.116Z,11.30
2018-05-10T21:53:05.663Z,11.20
2018-05-10T21:55:34.075Z,11.20
2018-05-10T21:58:01.660Z,11.20
2018-05-10T22:00:29.236Z,11.20
2018-05-10T22:02:56.792Z,11.20
2018-05-10T22:05:25.112Z,11.20
2018-05-10T22:07:52.664Z,11.20
2018-05-10T22:10:20.218Z,11.30
2018-05-10T22:12:47.802Z,11.20
2018-05-10T22:15:15.381Z,11.40
2018-05-10T22:17:42.931Z,11.40
2018-05-10T22:20:10.488Z,11.30
2018-05-10T22:22:38.080Z,11.40
2018-05-10T22:25:05.645Z,11.40
2018-05-10T22:27:33.963Z,11.40
2018-05-10T22:30:01.553Z,11.40
2018-05-10T22:32:30.340Z,11.50
2018-05-10T22:34:57.896Z,11.50
2018-05-10T22:37:27.316Z,11.40
2018-05-10T22:39:54.868Z,11.40
2018-05-10T22:42:22.416Z,11.40
2018-05-10T22:44:49.973Z,11.50
2018-05-10T22:47:17.524Z,11.40
2018-05-10T22:49:45.101Z,11.40
2018-05-10T22:52:13.240Z,11.40
2018-05-10T22:54:40.788Z,11.40
2018-05-10T22:57:08.347Z,11.40
2018-05-10T22:59:35.903Z,11.40
2018-05-10T23:02:03.473Z,11.40
2018-05-10T23:04:31.025Z,11.40
2018-05-10T23:06:58.573Z,11.40
2018-05-10T23:09:26.124Z,11.40
2018-05-10T23:11:53.692Z,11.40
2018-05-10T23:14:21.240Z,11.50
2018-05-10T23:16:48.800Z,11.40
2018-05-10T23:19:16.356Z,11.30
2018-05-10T23:21:43.912Z,11.40
2018-05-10T23:24:11.493Z,11.40
2018-05-10T23:26:39.048Z,11.40
2018-05-10T23:29:06.597Z,11.40
2018-05-10T23:31:34.156Z,11.40
2018-05-10T23:34:01.720Z,11.30
2018-05-10T23:36:29.294Z,11.30
2018-05-10T23:38:56.856Z,11.30
2018-05-10T23:41:24.407Z,11.30
2018-05-10T23:43:51.966Z,11.20
2018-05-10T23:46:19.523Z,11.20
2018-05-10T23:48:47.104Z,11.20
2018-05-10T23:51:14.656Z,11.30
2018-05-10T23:53:42.211Z,11.30
2018-05-10T23:56:09.766Z,11.30
2018-05-10T23:58:37.325Z,11.30
